sensor_id;sensor_type;location;lat;lon;timestamp;P1;durP1;ratioP1;P2;durP2;ratioP2
69956;SDS011;57283;54.816;9.482;2023-08-12T00:00:37;7.97;;;5.47;;
69956;SDS011;57283;54.816;9.482;2023-08-12T00:03:07;12.68;;;6.22;;
69956;SDS011;57283;54.816;9.482;2023-08-12T00:05:35;8.50;;;5.80;;
69956;SDS011;57283;54.816;9.482;2023-08-12T00:08:03;7.57;;;5.45;;
69956;SDS011;57283;54.816;9.482;2023-08-12T00:10:31;7.35;;;5.70;;
69956;SDS011;57283;54.816;9.482;2023-08-12T00:12:58;7.57;;;5.20;;
69956;SDS011;57283;54.816;9.482;2023-08-12T00:15:26;7.63;;;5.25;;
69956;SDS011;57283;54.816;9.482;2023-08-12T00:17:54;7.32;;;5.07;;
69956;SDS011;57283;54.816;9.482;2023-08-12T00:20:23;8.80;;;5.57;;
69956;SDS011;57283;54.816;9.482;2023-08-12T00:22:50;8.93;;;5.53;;
69956;SDS011;57283;54.816;9.482;2023-08-12T00:25:18;9.10;;;5.80;;
69956;SDS011;57283;54.816;9.482;2023-08-12T00:27:45;8.10;;;5.95;;
69956;SDS011;57283;54.816;9.482;2023-08-12T00:30:13;9.43;;;6.90;;
69956;SDS011;57283;54.816;9.482;2023-08-12T00:32:42;9.55;;;7.28;;
69956;SDS011;57283;54.816;9.482;2023-08-12T00:35:09;10.18;;;7.20;;
69956;SDS011;57283;54.816;9.482;2023-08-12T00:37:38;11.43;;;7.90;;
69956;SDS011;57283;54.816;9.482;2023-08-12T00:40:06;12.38;;;8.43;;
69956;SDS011;57283;54.816;9.482;2023-08-12T00:42:34;11.77;;;8.10;;
69956;SDS011;57283;54.816;9.482;2023-08-12T00:45:02;12.60;;;8.57;;
69956;SDS011;57283;54.816;9.482;2023-08-12T00:47:30;12.07;;;8.60;;
69956;SDS011;57283;54.816;9.482;2023-08-12T00:49:58;12.50;;;8.60;;
69956;SDS011;57283;54.816;9.482;2023-08-12T00:52:26;11.70;;;8.38;;
69956;SDS011;57283;54.816;9.482;2023-08-12T00:54:55;11.75;;;8.23;;
69956;SDS011;57283;54.816;9.482;2023-08-12T00:57:22;12.68;;;8.43;;
69956;SDS011;57283;54.816;9.482;2023-08-12T00:59:50;12.82;;;8.75;;
69956;SDS011;57283;54.816;9.482;2023-08-12T01:02:18;12.33;;;8.57;;
69956;SDS011;57283;54.816;9.482;2023-08-12T01:04:45;13.02;;;8.63;;
69956;SDS011;57283;54.816;9.482;2023-08-12T01:07:13;12.63;;;8.75;;
69956;SDS011;57283;54.816;9.482;2023-08-12T01:09:40;13.77;;;8.60;;
69956;SDS011;57283;54.816;9.482;2023-08-12T01:12:11;12.20;;;8.63;;
69956;SDS011;57283;54.816;9.482;2023-08-12T01:14:42;13.67;;;8.53;;
69956;SDS011;57283;54.816;9.482;2023-08-12T01:17:12;13.73;;;8.52;;
69956;SDS011;57283;54.816;9.482;2023-08-12T01:19:41;14.82;;;9.30;;
69956;SDS011;57283;54.816;9.482;2023-08-12T01:22:10;12.10;;;8.80;;
69956;SDS011;57283;54.816;9.482;2023-08-12T01:24:39;12.80;;;8.65;;
69956;SDS011;57283;54.816;9.482;2023-08-12T01:27:07;14.43;;;8.83;;
69956;SDS011;57283;54.816;9.482;2023-08-12T01:29:37;11.43;;;8.40;;
69956;SDS011;57283;54.816;9.482;2023-08-12T01:32:07;12.60;;;8.57;;
69956;SDS011;57283;54.816;9.482;2023-08-12T01:34:38;12.85;;;8.43;;
69956;SDS011;57283;54.816;9.482;2023-08-12T01:37:06;12.25;;;8.27;;
69956;SDS011;57283;54.816;9.482;2023-08-12T01:39:36;13.23;;;8.57;;
69956;SDS011;57283;54.816;9.482;2023-08-12T01:42:07;13.63;;;9.35;;
69956;SDS011;57283;54.816;9.482;2023-08-12T01:44:34;12.40;;;8.25;;
69956;SDS011;57283;54.816;9.482;2023-08-12T01:47:02;12.90;;;9.35;;
69956;SDS011;57283;54.816;9.482;2023-08-12T01:49:30;13.55;;;9.25;;
69956;SDS011;57283;54.816;9.482;2023-08-12T01:51:57;13.53;;;9.53;;
69956;SDS011;57283;54.816;9.482;2023-08-12T01:54:25;14.52;;;9.93;;
69956;SDS011;57283;54.816;9.482;2023-08-12T01:56:53;13.43;;;9.30;;
69956;SDS011;57283;54.816;9.482;2023-08-12T01:59:22;12.82;;;9.18;;
69956;SDS011;57283;54.816;9.482;2023-08-12T02:01:49;13.45;;;9.05;;
69956;SDS011;57283;54.816;9.482;2023-08-12T02:04:17;13.50;;;8.97;;
69956;SDS011;57283;54.816;9.482;2023-08-12T02:06:45;13.27;;;8.88;;
69956;SDS011;57283;54.816;9.482;2023-08-12T02:09:12;13.75;;;9.30;;
69956;SDS011;57283;54.816;9.482;2023-08-12T02:11:40;14.20;;;9.20;;
69956;SDS011;57283;54.816;9.482;2023-08-12T02:14:07;15.95;;;9.60;;
69956;SDS011;57283;54.816;9.482;2023-08-12T02:16:36;16.43;;;9.53;;
69956;SDS011;57283;54.816;9.482;2023-08-12T02:19:04;14.63;;;9.68;;
69956;SDS011;57283;54.816;9.482;2023-08-12T02:21:31;13.00;;;8.77;;
69956;SDS011;57283;54.816;9.482;2023-08-12T02:23:59;14.65;;;8.98;;
69956;SDS011;57283;54.816;9.482;2023-08-12T02:26:27;15.23;;;9.00;;
69956;SDS011;57283;54.816;9.482;2023-08-12T02:28:54;14.00;;;8.90;;
69956;SDS011;57283;54.816;9.482;2023-08-12T02:31:22;13.77;;;9.68;;
69956;SDS011;57283;54.816;9.482;2023-08-12T02:33:51;14.15;;;9.63;;
69956;SDS011;57283;54.816;9.482;2023-08-12T02:36:19;15.15;;;9.68;;
69956;SDS011;57283;54.816;9.482;2023-08-12T02:38:46;14.82;;;9.48;;
69956;SDS011;57283;54.816;9.482;2023-08-12T02:41:14;16.87;;;10.10;;
69956;SDS011;57283;54.816;9.482;2023-08-12T02:43:41;14.05;;;9.30;;
69956;SDS011;57283;54.816;9.482;2023-08-12T02:46:09;13.18;;;8.80;;
69956;SDS011;57283;54.816;9.482;2023-08-12T02:48:37;13.65;;;8.85;;
69956;SDS011;57283;54.816;9.482;2023-08-12T02:51:06;14.90;;;9.30;;
69956;SDS011;57283;54.816;9.482;2023-08-12T02:53:33;12.93;;;8.90;;
69956;SDS011;57283;54.816;9.482;2023-08-12T02:56:01;14.05;;;9.02;;
69956;SDS011;57283;54.816;9.482;2023-08-12T02:58:29;12.98;;;9.27;;
69956;SDS011;57283;54.816;9.482;2023-08-12T03:00:56;15.38;;;9.55;;
69956;SDS011;57283;54.816;9.482;2023-08-12T03:03:24;15.75;;;9.60;;
69956;SDS011;57283;54.816;9.482;2023-08-12T03:05:51;13.30;;;9.00;;
69956;SDS011;57283;54.816;9.482;2023-08-12T03:08:20;14.48;;;9.40;;
69956;SDS011;57283;54.816;9.482;2023-08-12T03:10:48;15.23;;;9.80;;
69956;SDS011;57283;54.816;9.482;2023-08-12T03:13:16;16.90;;;9.75;;
69956;SDS011;57283;54.816;9.482;2023-08-12T03:15:43;17.58;;;11.15;;
69956;SDS011;57283;54.816;9.482;2023-08-12T03:18:11;15.93;;;10.37;;
69956;SDS011;57283;54.816;9.482;2023-08-12T03:20:38;18.00;;;11.23;;
69956;SDS011;57283;54.816;9.482;2023-08-12T03:23:06;20.13;;;11.48;;
69956;SDS011;57283;54.816;9.482;2023-08-12T03:25:35;18.65;;;10.30;;
69956;SDS011;57283;54.816;9.482;2023-08-12T03:28:03;17.20;;;10.77;;
69956;SDS011;57283;54.816;9.482;2023-08-12T03:30:30;18.70;;;11.57;;
69956;SDS011;57283;54.816;9.482;2023-08-12T03:32:58;15.85;;;10.27;;
69956;SDS011;57283;54.816;9.482;2023-08-12T03:35:26;16.33;;;10.13;;
69956;SDS011;57283;54.816;9.482;2023-08-12T03:37:53;15.68;;;10.20;;
69956;SDS011;57283;54.816;9.482;2023-08-12T03:40:21;16.42;;;10.63;;
69956;SDS011;57283;54.816;9.482;2023-08-12T03:42:50;16.47;;;10.40;;
69956;SDS011;57283;54.816;9.482;2023-08-12T03:45:18;15.35;;;10.25;;
69956;SDS011;57283;54.816;9.482;2023-08-12T03:47:45;16.80;;;9.75;;
69956;SDS011;57283;54.816;9.482;2023-08-12T03:50:13;14.95;;;9.52;;
69956;SDS011;57283;54.816;9.482;2023-08-12T03:52:41;13.70;;;9.55;;
69956;SDS011;57283;54.816;9.482;2023-08-12T03:55:08;15.27;;;9.20;;
69956;SDS011;57283;54.816;9.482;2023-08-12T03:57:36;17.33;;;9.63;;
69956;SDS011;57283;54.816;9.482;2023-08-12T04:00:06;15.65;;;9.38;;
69956;SDS011;57283;54.816;9.482;2023-08-12T04:02:34;14.25;;;8.95;;
69956;SDS011;57283;54.816;9.482;2023-08-12T04:05:02;14.60;;;8.65;;
69956;SDS011;57283;54.816;9.482;2023-08-12T04:07:31;14.47;;;8.60;;
69956;SDS011;57283;54.816;9.482;2023-08-12T04:09:59;13.30;;;8.48;;
69956;SDS011;57283;54.816;9.482;2023-08-12T04:12:26;14.27;;;8.75;;
69956;SDS011;57283;54.816;9.482;2023-08-12T04:14:54;14.43;;;8.40;;
69956;SDS011;57283;54.816;9.482;2023-08-12T04:17:23;15.00;;;9.05;;
69956;SDS011;57283;54.816;9.482;2023-08-12T04:19:50;13.23;;;8.40;;
69956;SDS011;57283;54.816;9.482;2023-08-12T04:22:18;13.20;;;8.77;;
69956;SDS011;57283;54.816;9.482;2023-08-12T04:24:46;14.07;;;8.38;;
69956;SDS011;57283;54.816;9.482;2023-08-12T04:27:13;13.02;;;8.50;;
69956;SDS011;57283;54.816;9.482;2023-08-12T04:29:42;14.45;;;9.02;;
69956;SDS011;57283;54.816;9.482;2023-08-12T04:32:10;15.13;;;8.70;;
69956;SDS011;57283;54.816;9.482;2023-08-12T04:34:39;14.85;;;8.80;;
69956;SDS011;57283;54.816;9.482;2023-08-12T04:37:06;15.02;;;9.10;;
69956;SDS011;57283;54.816;9.482;2023-08-12T04:39:34;14.55;;;8.77;;
69956;SDS011;57283;54.816;9.482;2023-08-12T04:42:02;16.30;;;9.65;;
69956;SDS011;57283;54.816;9.482;2023-08-12T04:44:29;14.67;;;9.07;;
69956;SDS011;57283;54.816;9.482;2023-08-12T04:46:57;15.80;;;9.80;;
69956;SDS011;57283;54.816;9.482;2023-08-12T04:49:24;15.93;;;10.05;;
69956;SDS011;57283;54.816;9.482;2023-08-12T04:51:53;15.60;;;9.55;;
69956;SDS011;57283;54.816;9.482;2023-08-12T04:54:21;16.95;;;10.23;;
69956;SDS011;57283;54.816;9.482;2023-08-12T04:56:49;19.10;;;11.10;;
69956;SDS011;57283;54.816;9.482;2023-08-12T04:59:16;17.88;;;10.98;;
69956;SDS011;57283;54.816;9.482;2023-08-12T05:01:44;17.58;;;10.60;;
69956;SDS011;57283;54.816;9.482;2023-08-12T05:04:29;16.85;;;11.02;;
69956;SDS011;57283;54.816;9.482;2023-08-12T05:06:58;18.05;;;10.80;;
69956;SDS011;57283;54.816;9.482;2023-08-12T05:09:26;17.30;;;11.07;;
69956;SDS011;57283;54.816;9.482;2023-08-12T05:11:53;17.80;;;11.77;;
69956;SDS011;57283;54.816;9.482;2023-08-12T05:14:21;20.40;;;11.95;;
69956;SDS011;57283;54.816;9.482;2023-08-12T05:16:49;16.98;;;11.10;;
69956;SDS011;57283;54.816;9.482;2023-08-12T05:19:16;16.88;;;11.40;;
69956;SDS011;57283;54.816;9.482;2023-08-12T05:21:44;18.40;;;11.30;;
69956;SDS011;57283;54.816;9.482;2023-08-12T05:24:13;16.80;;;11.15;;
69956;SDS011;57283;54.816;9.482;2023-08-12T05:26:42;16.23;;;10.75;;
69956;SDS011;57283;54.816;9.482;2023-08-12T05:29:10;16.33;;;10.65;;
69956;SDS011;57283;54.816;9.482;2023-08-12T05:31:37;19.02;;;10.80;;
69956;SDS011;57283;54.816;9.482;2023-08-12T05:34:05;17.20;;;10.77;;
69956;SDS011;57283;54.816;9.482;2023-08-12T05:36:33;16.05;;;10.48;;
69956;SDS011;57283;54.816;9.482;2023-08-12T05:39:00;18.20;;;11.52;;
69956;SDS011;57283;54.816;9.482;2023-08-12T05:41:29;16.77;;;10.90;;
69956;SDS011;57283;54.816;9.482;2023-08-12T05:43:57;17.27;;;10.75;;
69956;SDS011;57283;54.816;9.482;2023-08-12T05:46:24;16.43;;;10.30;;
69956;SDS011;57283;54.816;9.482;2023-08-12T05:48:52;17.10;;;10.73;;
69956;SDS011;57283;54.816;9.482;2023-08-12T05:51:19;17.95;;;10.48;;
69956;SDS011;57283;54.816;9.482;2023-08-12T05:53:48;16.38;;;11.02;;
69956;SDS011;57283;54.816;9.482;2023-08-12T05:56:15;17.70;;;10.73;;
69956;SDS011;57283;54.816;9.482;2023-08-12T05:58:44;17.83;;;10.63;;
69956;SDS011;57283;54.816;9.482;2023-08-12T06:01:12;18.10;;;10.95;;
69956;SDS011;57283;54.816;9.482;2023-08-12T06:03:39;16.73;;;10.88;;
69956;SDS011;57283;54.816;9.482;2023-08-12T06:06:07;15.00;;;10.48;;
69956;SDS011;57283;54.816;9.482;2023-08-12T06:08:35;15.68;;;10.88;;
69956;SDS011;57283;54.816;9.482;2023-08-12T06:11:02;17.13;;;10.20;;
69956;SDS011;57283;54.816;9.482;2023-08-12T06:13:30;15.82;;;10.80;;
69956;SDS011;57283;54.816;9.482;2023-08-12T06:15:59;16.10;;;9.65;;
69956;SDS011;57283;54.816;9.482;2023-08-12T06:18:27;14.98;;;9.63;;
69956;SDS011;57283;54.816;9.482;2023-08-12T06:20:55;17.33;;;10.25;;
69956;SDS011;57283;54.816;9.482;2023-08-12T06:23:23;15.63;;;9.73;;
69956;SDS011;57283;54.816;9.482;2023-08-12T06:25:53;14.90;;;9.65;;
69956;SDS011;57283;54.816;9.482;2023-08-12T06:28:20;14.45;;;9.80;;
69956;SDS011;57283;54.816;9.482;2023-08-12T06:30:48;13.15;;;8.77;;
69956;SDS011;57283;54.816;9.482;2023-08-12T06:33:17;14.45;;;9.05;;
69956;SDS011;57283;54.816;9.482;2023-08-12T06:35:44;13.33;;;8.60;;
69956;SDS011;57283;54.816;9.482;2023-08-12T06:38:16;13.63;;;8.50;;
69956;SDS011;57283;54.816;9.482;2023-08-12T06:40:43;11.48;;;8.02;;
69956;SDS011;57283;54.816;9.482;2023-08-12T06:43:11;13.38;;;8.73;;
69956;SDS011;57283;54.816;9.482;2023-08-12T06:45:39;13.50;;;8.85;;
69956;SDS011;57283;54.816;9.482;2023-08-12T06:48:06;12.33;;;7.97;;
69956;SDS011;57283;54.816;9.482;2023-08-12T06:50:35;16.55;;;8.85;;
69956;SDS011;57283;54.816;9.482;2023-08-12T06:53:03;16.50;;;9.38;;
69956;SDS011;57283;54.816;9.482;2023-08-12T06:55:31;14.05;;;8.18;;
69956;SDS011;57283;54.816;9.482;2023-08-12T06:57:59;14.73;;;8.10;;
69956;SDS011;57283;54.816;9.482;2023-08-12T07:00:26;13.93;;;8.50;;
69956;SDS011;57283;54.816;9.482;2023-08-12T07:02:54;12.30;;;8.18;;
69956;SDS011;57283;54.816;9.482;2023-08-12T07:05:22;13.05;;;8.05;;
69956;SDS011;57283;54.816;9.482;2023-08-12T07:07:51;12.50;;;8.07;;
69956;SDS011;57283;54.816;9.482;2023-08-12T07:10:18;13.00;;;8.07;;
69956;SDS011;57283;54.816;9.482;2023-08-12T07:12:49;14.67;;;8.80;;
69956;SDS011;57283;54.816;9.482;2023-08-12T07:15:16;14.55;;;8.32;;
69956;SDS011;57283;54.816;9.482;2023-08-12T07:17:44;14.02;;;8.80;;
69956;SDS011;57283;54.816;9.482;2023-08-12T07:20:12;16.27;;;9.18;;
69956;SDS011;57283;54.816;9.482;2023-08-12T07:22:39;17.35;;;9.23;;
69956;SDS011;57283;54.816;9.482;2023-08-12T07:25:09;16.00;;;8.47;;
69956;SDS011;57283;54.816;9.482;2023-08-12T07:27:37;17.13;;;8.63;;
69956;SDS011;57283;54.816;9.482;2023-08-12T07:30:05;14.20;;;8.23;;
69956;SDS011;57283;54.816;9.482;2023-08-12T07:32:34;15.95;;;8.90;;
69956;SDS011;57283;54.816;9.482;2023-08-12T07:35:01;14.25;;;8.25;;
69956;SDS011;57283;54.816;9.482;2023-08-12T07:37:29;15.03;;;8.00;;
69956;SDS011;57283;54.816;9.482;2023-08-12T07:39:56;14.10;;;8.98;;
69956;SDS011;57283;54.816;9.482;2023-08-12T07:42:25;13.40;;;9.05;;
69956;SDS011;57283;54.816;9.482;2023-08-12T07:44:53;15.10;;;8.63;;
69956;SDS011;57283;54.816;9.482;2023-08-12T07:47:20;13.65;;;8.45;;
69956;SDS011;57283;54.816;9.482;2023-08-12T07:49:48;14.70;;;9.00;;
69956;SDS011;57283;54.816;9.482;2023-08-12T07:52:16;14.00;;;8.75;;
69956;SDS011;57283;54.816;9.482;2023-08-12T07:54:43;13.82;;;9.15;;
69956;SDS011;57283;54.816;9.482;2023-08-12T07:57:11;14.60;;;8.88;;
69956;SDS011;57283;54.816;9.482;2023-08-12T07:59:40;15.70;;;9.35;;
69956;SDS011;57283;54.816;9.482;2023-08-12T08:02:07;14.13;;;8.87;;
69956;SDS011;57283;54.816;9.482;2023-08-12T08:04:35;14.70;;;8.73;;
69956;SDS011;57283;54.816;9.482;2023-08-12T08:07:03;14.23;;;8.50;;
69956;SDS011;57283;54.816;9.482;2023-08-12T08:09:31;15.38;;;8.48;;
69956;SDS011;57283;54.816;9.482;2023-08-12T08:12:00;14.43;;;7.68;;
69956;SDS011;57283;54.816;9.482;2023-08-12T08:14:27;12.07;;;7.97;;
69956;SDS011;57283;54.816;9.482;2023-08-12T08:16:56;14.07;;;8.93;;
69956;SDS011;57283;54.816;9.482;2023-08-12T08:19:24;12.98;;;7.47;;
69956;SDS011;57283;54.816;9.482;2023-08-12T08:21:56;13.38;;;7.60;;
69956;SDS011;57283;54.816;9.482;2023-08-12T08:24:24;10.25;;;6.88;;
69956;SDS011;57283;54.816;9.482;2023-08-12T08:26:51;11.50;;;7.27;;
69956;SDS011;57283;54.816;9.482;2023-08-12T08:29:19;10.38;;;6.57;;
69956;SDS011;57283;54.816;9.482;2023-08-12T08:31:46;10.23;;;7.03;;
69956;SDS011;57283;54.816;9.482;2023-08-12T08:34:15;11.38;;;7.38;;
69956;SDS011;57283;54.816;9.482;2023-08-12T08:36:43;10.90;;;6.97;;
69956;SDS011;57283;54.816;9.482;2023-08-12T08:39:11;10.47;;;7.10;;
69956;SDS011;57283;54.816;9.482;2023-08-12T08:41:39;11.82;;;7.30;;
69956;SDS011;57283;54.816;9.482;2023-08-12T08:44:07;9.75;;;6.90;;
69956;SDS011;57283;54.816;9.482;2023-08-12T08:46:36;10.23;;;6.32;;
69956;SDS011;57283;54.816;9.482;2023-08-12T08:49:04;10.63;;;6.18;;
69956;SDS011;57283;54.816;9.482;2023-08-12T08:51:33;10.17;;;6.47;;
69956;SDS011;57283;54.816;9.482;2023-08-12T08:54:02;10.75;;;6.70;;
69956;SDS011;57283;54.816;9.482;2023-08-12T08:56:30;9.85;;;6.75;;
69956;SDS011;57283;54.816;9.482;2023-08-12T08:58:59;8.35;;;5.15;;
69956;SDS011;57283;54.816;9.482;2023-08-12T09:01:27;10.38;;;6.22;;
69956;SDS011;57283;54.816;9.482;2023-08-12T09:03:56;9.17;;;5.20;;
69956;SDS011;57283;54.816;9.482;2023-08-12T09:06:25;7.47;;;5.25;;
69956;SDS011;57283;54.816;9.482;2023-08-12T09:08:55;10.40;;;6.03;;
69956;SDS011;57283;54.816;9.482;2023-08-12T09:11:23;11.60;;;6.72;;
69956;SDS011;57283;54.816;9.482;2023-08-12T09:13:52;10.30;;;5.80;;
69956;SDS011;57283;54.816;9.482;2023-08-12T09:16:19;8.37;;;5.30;;
69956;SDS011;57283;54.816;9.482;2023-08-12T09:18:47;7.78;;;4.80;;
69956;SDS011;57283;54.816;9.482;2023-08-12T09:21:21;7.25;;;4.57;;
69956;SDS011;57283;54.816;9.482;2023-08-12T09:23:48;7.10;;;4.40;;
69956;SDS011;57283;54.816;9.482;2023-08-12T09:26:18;7.20;;;4.60;;
69956;SDS011;57283;54.816;9.482;2023-08-12T09:28:46;8.97;;;4.70;;
69956;SDS011;57283;54.816;9.482;2023-08-12T09:31:21;7.13;;;4.55;;
69956;SDS011;57283;54.816;9.482;2023-08-12T09:33:49;8.57;;;5.72;;
69956;SDS011;57283;54.816;9.482;2023-08-12T09:36:17;7.65;;;4.65;;
69956;SDS011;57283;54.816;9.482;2023-08-12T09:38:44;7.57;;;4.30;;
69956;SDS011;57283;54.816;9.482;2023-08-12T09:41:12;8.67;;;5.10;;
69956;SDS011;57283;54.816;9.482;2023-08-12T09:43:42;6.82;;;4.40;;
69956;SDS011;57283;54.816;9.482;2023-08-12T09:46:10;7.22;;;4.40;;
69956;SDS011;57283;54.816;9.482;2023-08-12T09:48:38;6.65;;;4.57;;
69956;SDS011;57283;54.816;9.482;2023-08-12T09:51:06;7.30;;;4.72;;
69956;SDS011;57283;54.816;9.482;2023-08-12T09:53:34;8.80;;;4.70;;
69956;SDS011;57283;54.816;9.482;2023-08-12T09:56:04;8.43;;;4.90;;
69956;SDS011;57283;54.816;9.482;2023-08-12T09:58:33;6.65;;;4.55;;
69956;SDS011;57283;54.816;9.482;2023-08-12T10:01:03;7.60;;;5.13;;
69956;SDS011;57283;54.816;9.482;2023-08-12T10:03:33;7.65;;;4.47;;
69956;SDS011;57283;54.816;9.482;2023-08-12T10:06:01;6.73;;;4.07;;
69956;SDS011;57283;54.816;9.482;2023-08-12T10:08:29;6.35;;;4.18;;
69956;SDS011;57283;54.816;9.482;2023-08-12T10:10:57;8.30;;;4.60;;
69956;SDS011;57283;54.816;9.482;2023-08-12T10:13:38;6.25;;;4.10;;
69956;SDS011;57283;54.816;9.482;2023-08-12T10:16:08;6.93;;;4.50;;
69956;SDS011;57283;54.816;9.482;2023-08-12T10:18:37;5.83;;;4.30;;
69956;SDS011;57283;54.816;9.482;2023-08-12T10:21:05;7.63;;;4.20;;
69956;SDS011;57283;54.816;9.482;2023-08-12T10:23:36;8.07;;;3.70;;
69956;SDS011;57283;54.816;9.482;2023-08-12T10:26:04;7.22;;;3.63;;
69956;SDS011;57283;54.816;9.482;2023-08-12T10:28:33;6.47;;;4.50;;
69956;SDS011;57283;54.816;9.482;2023-08-12T10:31:04;6.70;;;3.87;;
69956;SDS011;57283;54.816;9.482;2023-08-12T10:33:36;7.75;;;3.78;;
69956;SDS011;57283;54.816;9.482;2023-08-12T10:36:04;6.10;;;4.28;;
69956;SDS011;57283;54.816;9.482;2023-08-12T10:38:32;8.02;;;3.40;;
69956;SDS011;57283;54.816;9.482;2023-08-12T10:41:16;7.38;;;4.32;;
69956;SDS011;57283;54.816;9.482;2023-08-12T10:43:53;6.70;;;4.33;;
69956;SDS011;57283;54.816;9.482;2023-08-12T10:46:22;6.10;;;3.53;;
69956;SDS011;57283;54.816;9.482;2023-08-12T10:48:58;7.68;;;3.80;;
69956;SDS011;57283;54.816;9.482;2023-08-12T10:51:40;8.35;;;3.50;;
69956;SDS011;57283;54.816;9.482;2023-08-12T10:54:15;7.68;;;3.80;;
69956;SDS011;57283;54.816;9.482;2023-08-12T11:02:28;7.88;;;4.13;;
69956;SDS011;57283;54.816;9.482;2023-08-12T11:05:00;7.43;;;3.88;;
69956;SDS011;57283;54.816;9.482;2023-08-12T11:07:29;7.28;;;3.60;;
69956;SDS011;57283;54.816;9.482;2023-08-12T11:09:59;6.87;;;3.60;;
69956;SDS011;57283;54.816;9.482;2023-08-12T11:12:28;7.28;;;4.25;;
69956;SDS011;57283;54.816;9.482;2023-08-12T11:14:57;6.18;;;3.95;;
69956;SDS011;57283;54.816;9.482;2023-08-12T11:17:29;8.90;;;3.90;;
69956;SDS011;57283;54.816;9.482;2023-08-12T11:19:58;5.55;;;3.97;;
69956;SDS011;57283;54.816;9.482;2023-08-12T11:22:26;7.50;;;3.97;;
69956;SDS011;57283;54.816;9.482;2023-08-12T11:24:55;6.15;;;3.85;;
69956;SDS011;57283;54.816;9.482;2023-08-12T11:27:22;6.47;;;4.10;;
69956;SDS011;57283;54.816;9.482;2023-08-12T11:29:50;7.82;;;4.10;;
69956;SDS011;57283;54.816;9.482;2023-08-12T11:32:18;8.73;;;4.15;;
69956;SDS011;57283;54.816;9.482;2023-08-12T11:34:46;6.60;;;4.27;;
69956;SDS011;57283;54.816;9.482;2023-08-12T11:37:15;6.05;;;4.10;;
69956;SDS011;57283;54.816;9.482;2023-08-12T11:39:43;9.05;;;4.00;;
69956;SDS011;57283;54.816;9.482;2023-08-12T11:42:13;6.55;;;3.90;;
69956;SDS011;57283;54.816;9.482;2023-08-12T11:44:42;9.15;;;4.80;;
69956;SDS011;57283;54.816;9.482;2023-08-12T11:47:10;7.40;;;3.97;;
69956;SDS011;57283;54.816;9.482;2023-08-12T11:49:37;7.13;;;4.65;;
69956;SDS011;57283;54.816;9.482;2023-08-12T11:52:05;8.07;;;4.40;;
69956;SDS011;57283;54.816;9.482;2023-08-12T11:54:35;6.95;;;4.18;;
69956;SDS011;57283;54.816;9.482;2023-08-12T11:57:02;8.20;;;4.63;;
69956;SDS011;57283;54.816;9.482;2023-08-12T11:59:30;8.43;;;4.53;;
69956;SDS011;57283;54.816;9.482;2023-08-12T12:02:01;9.25;;;4.63;;
69956;SDS011;57283;54.816;9.482;2023-08-12T12:04:30;6.95;;;4.28;;
69956;SDS011;57283;54.816;9.482;2023-08-12T12:06:57;8.25;;;4.10;;
69956;SDS011;57283;54.816;9.482;2023-08-12T12:09:26;6.57;;;4.28;;
69956;SDS011;57283;54.816;9.482;2023-08-12T12:11:55;6.60;;;4.03;;
69956;SDS011;57283;54.816;9.482;2023-08-12T12:14:24;7.40;;;3.75;;
69956;SDS011;57283;54.816;9.482;2023-08-12T12:16:51;6.80;;;4.40;;
69956;SDS011;57283;54.816;9.482;2023-08-12T12:19:20;7.47;;;4.20;;
69956;SDS011;57283;54.816;9.482;2023-08-12T12:21:48;7.72;;;4.47;;
69956;SDS011;57283;54.816;9.482;2023-08-12T12:24:16;7.33;;;4.10;;
69956;SDS011;57283;54.816;9.482;2023-08-12T12:26:44;9.00;;;4.20;;
69956;SDS011;57283;54.816;9.482;2023-08-12T12:29:14;7.78;;;4.43;;
69956;SDS011;57283;54.816;9.482;2023-08-12T12:31:42;7.75;;;4.15;;
69956;SDS011;57283;54.816;9.482;2023-08-12T12:34:09;7.70;;;5.03;;
69956;SDS011;57283;54.816;9.482;2023-08-12T12:36:37;9.03;;;5.33;;
69956;SDS011;57283;54.816;9.482;2023-08-12T12:39:05;6.90;;;4.55;;
69956;SDS011;57283;54.816;9.482;2023-08-12T12:41:33;7.85;;;5.13;;
69956;SDS011;57283;54.816;9.482;2023-08-12T12:44:01;8.02;;;4.80;;
69956;SDS011;57283;54.816;9.482;2023-08-12T12:46:30;7.43;;;4.57;;
69956;SDS011;57283;54.816;9.482;2023-08-12T12:48:57;8.30;;;4.63;;
69956;SDS011;57283;54.816;9.482;2023-08-12T12:51:25;9.75;;;4.95;;
69956;SDS011;57283;54.816;9.482;2023-08-12T12:53:53;9.07;;;5.32;;
69956;SDS011;57283;54.816;9.482;2023-08-12T12:56:20;9.02;;;5.53;;
69956;SDS011;57283;54.816;9.482;2023-08-12T12:58:48;8.70;;;5.50;;
69956;SDS011;57283;54.816;9.482;2023-08-12T13:01:15;9.37;;;5.40;;
69956;SDS011;57283;54.816;9.482;2023-08-12T13:03:44;7.10;;;5.13;;
69956;SDS011;57283;54.816;9.482;2023-08-12T13:06:12;10.63;;;5.20;;
69956;SDS011;57283;54.816;9.482;2023-08-12T13:08:40;10.25;;;6.53;;
69956;SDS011;57283;54.816;9.482;2023-08-12T13:11:08;10.50;;;6.82;;
69956;SDS011;57283;54.816;9.482;2023-08-12T13:13:36;13.50;;;7.27;;
69956;SDS011;57283;54.816;9.482;2023-08-12T13:16:03;11.48;;;6.47;;
69956;SDS011;57283;54.816;9.482;2023-08-12T13:18:31;12.43;;;7.05;;
69956;SDS011;57283;54.816;9.482;2023-08-12T13:21:00;10.85;;;7.30;;
69956;SDS011;57283;54.816;9.482;2023-08-12T13:23:28;12.98;;;7.75;;
69956;SDS011;57283;54.816;9.482;2023-08-12T13:25:55;11.03;;;7.63;;
69956;SDS011;57283;54.816;9.482;2023-08-12T13:28:23;14.07;;;8.55;;
69956;SDS011;57283;54.816;9.482;2023-08-12T13:30:50;13.05;;;8.77;;
69956;SDS011;57283;54.816;9.482;2023-08-12T13:33:18;15.68;;;9.60;;
69956;SDS011;57283;54.816;9.482;2023-08-12T13:35:46;14.48;;;9.15;;
69956;SDS011;57283;54.816;9.482;2023-08-12T13:38:15;16.37;;;9.73;;
69956;SDS011;57283;54.816;9.482;2023-08-12T13:40:43;16.20;;;9.88;;
69956;SDS011;57283;54.816;9.482;2023-08-12T13:43:10;15.82;;;10.88;;
69956;SDS011;57283;54.816;9.482;2023-08-12T13:45:38;14.43;;;9.63;;
69956;SDS011;57283;54.816;9.482;2023-08-12T13:48:06;14.57;;;9.50;;
69956;SDS011;57283;54.816;9.482;2023-08-12T13:50:34;15.40;;;9.23;;
69956;SDS011;57283;54.816;9.482;2023-08-12T13:53:02;13.18;;;8.95;;
69956;SDS011;57283;54.816;9.482;2023-08-12T13:55:31;14.57;;;9.57;;
69956;SDS011;57283;54.816;9.482;2023-08-12T13:57:59;14.57;;;9.13;;
69956;SDS011;57283;54.816;9.482;2023-08-12T14:00:26;9.43;;;5.03;;
69956;SDS011;57283;54.816;9.482;2023-08-12T14:02:54;8.37;;;4.53;;
69956;SDS011;57283;54.816;9.482;2023-08-12T14:05:21;12.88;;;5.70;;
69956;SDS011;57283;54.816;9.482;2023-08-12T14:07:50;11.70;;;5.80;;
69956;SDS011;57283;54.816;9.482;2023-08-12T14:10:18;8.13;;;4.20;;
69956;SDS011;57283;54.816;9.482;2023-08-12T14:12:47;9.35;;;4.00;;
69956;SDS011;57283;54.816;9.482;2023-08-12T14:15:18;7.43;;;4.07;;
69956;SDS011;57283;54.816;9.482;2023-08-12T14:17:45;7.47;;;4.35;;
69956;SDS011;57283;54.816;9.482;2023-08-12T14:20:13;7.93;;;4.85;;
69956;SDS011;57283;54.816;9.482;2023-08-12T14:22:41;9.98;;;4.38;;
69956;SDS011;57283;54.816;9.482;2023-08-12T14:25:10;10.45;;;4.90;;
69956;SDS011;57283;54.816;9.482;2023-08-12T14:27:38;11.17;;;5.57;;
69956;SDS011;57283;54.816;9.482;2023-08-12T14:30:09;11.30;;;6.28;;
69956;SDS011;57283;54.816;9.482;2023-08-12T14:32:37;11.30;;;5.68;;
69956;SDS011;57283;54.816;9.482;2023-08-12T14:35:05;8.90;;;5.07;;
69956;SDS011;57283;54.816;9.482;2023-08-12T14:37:33;9.75;;;5.40;;
69956;SDS011;57283;54.816;9.482;2023-08-12T14:40:00;9.60;;;4.80;;
69956;SDS011;57283;54.816;9.482;2023-08-12T14:42:29;9.57;;;5.05;;
69956;SDS011;57283;54.816;9.482;2023-08-12T14:44:59;9.52;;;4.82;;
69956;SDS011;57283;54.816;9.482;2023-08-12T14:47:28;8.77;;;5.10;;
69956;SDS011;57283;54.816;9.482;2023-08-12T14:49:56;9.73;;;5.13;;